Time;durP1;ratioP1;P1;durP2;ratioP2;P2;SDS_P1;SDS_P2;PMS_P1;PMS_P2;Temp;Humidity;BMP_temperature;BMP_pressure;BME280_temperature;BME280_humidity;BME280_pressure;Samples;Min_cycle;Max_cycle;Signal;HPM_P1;HPM_P2
2021/06/30 00:00:34;;;;;;;3.98;1.20;;;;;;;18.06;74.60;99227.14;1671580;83;21541;-54
2021/06/30 00:03:00;;;;;;;1.82;1.20;;;;;;;18.06;74.58;99228.01;1654204;84;21137;-54
2021/06/30 00:05:26;;;;;;;1.55;1.20;;;;;;;18.03;74.62;99232.88;1710990;81;21093;-54
2021/06/30 00:07:54;;;;;;;2.50;1.07;;;;;;;18.02;74.63;99231.14;1710947;81;21058;-55
2021/06/30 00:10:20;;;;;;;3.45;1.10;;;;;;;18.00;74.66;99238.08;1706722;81;21062;-57
2021/06/30 00:12:48;;;;;;;3.40;1.67;;;;;;;18.00;74.68;99241.30;1710049;81;21038;-57
2021/06/30 00:15:23;;;;;;;1.72;1.22;;;;;;;18.00;74.69;99250.83;1712863;81;21090;-56
2021/06/30 00:17:49;;;;;;;2.20;0.85;;;;;;;18.01;74.68;99253.92;1707886;81;21038;-56
2021/06/30 00:20:16;;;;;;;1.45;0.98;;;;;;;18.00;74.58;99256.28;1708725;81;21053;-55
2021/06/30 00:22:44;;;;;;;1.75;1.00;;;;;;;18.00;74.48;99264.45;1708960;81;21064;-56
2021/06/30 00:25:12;;;;;;;3.17;1.30;;;;;;;17.98;74.14;99264.58;1706454;81;23369;-55
2021/06/30 00:27:38;;;;;;;1.70;1.20;;;;;;;17.93;73.92;99264.12;1709241;81;21211;-54
2021/06/30 00:30:08;;;;;;;2.02;1.05;;;;;;;17.89;73.89;99263.13;1708684;81;21089;-58
2021/06/30 00:32:35;;;;;;;7.12;0.98;;;;;;;17.83;74.00;99265.03;1715441;81;21046;-57
2021/06/30 00:35:01;;;;;;;9.38;1.92;;;;;;;17.78;74.02;99266.77;1707653;81;21114;-57
2021/06/30 00:37:28;;;;;;;9.53;1.40;;;;;;;17.74;74.24;99260.74;1710792;81;21085;-56
2021/06/30 00:39:54;;;;;;;1.20;0.90;;;;;;;17.71;74.54;99261.48;1708555;81;21171;-56
2021/06/30 00:42:20;;;;;;;2.50;1.20;;;;;;;17.69;74.67;99261.61;1708168;81;21078;-54
2021/06/30 00:44:47;;;;;;;1.30;0.90;;;;;;;17.68;74.73;99257.19;1715255;81;21033;-55
2021/06/30 00:47:14;;;;;;;1.07;0.98;;;;;;;17.68;74.74;99255.83;1711869;81;21536;-56
2021/06/30 00:49:41;;;;;;;1.45;1.22;;;;;;;17.68;74.68;99253.60;1710945;81;21066;-56
2021/06/30 00:52:10;;;;;;;1.10;0.95;;;;;;;17.67;74.67;99251.88;1713748;81;21608;-57
2021/06/30 00:54:36;;;;;;;1.00;0.90;;;;;;;17.66;74.57;99246.92;1708937;81;21081;-56
2021/06/30 00:57:03;;;;;;;1.20;0.80;;;;;;;17.66;74.52;99251.50;1653986;84;21566;-54
2021/06/30 00:59:29;;;;;;;1.05;0.80;;;;;;;17.65;74.30;99249.77;1678212;83;21089;-54
2021/06/30 01:01:55;;;;;;;8.93;1.00;;;;;;;17.63;74.30;99250.39;1662377;84;21156;-58
2021/06/30 01:04:22;;;;;;;1.05;0.95;;;;;;;17.61;74.34;99240.09;1715442;80;21494;-54
2021/06/30 01:06:48;;;;;;;5.25;1.10;;;;;;;17.60;74.44;99244.70;1721271;80;20859;-57
2021/06/30 01:09:15;;;;;;;1.92;1.27;;;;;;;17.57;74.45;99242.23;1723802;80;20970;-56
2021/06/30 01:11:42;;;;;;;2.75;1.27;;;;;;;17.56;74.56;99247.30;1721515;80;21105;-57
2021/06/30 01:14:10;;;;;;;2.45;0.95;;;;;;;17.56;74.57;99249.16;1716789;80;21069;-54
2021/06/30 01:16:36;;;;;;;1.25;1.15;;;;;;;17.53;74.48;99246.19;1714094;80;22163;-57
2021/06/30 01:19:03;;;;;;;4.50;1.00;;;;;;;17.52;74.38;99256.73;1714795;81;21042;-56
2021/06/30 01:21:29;;;;;;;1.98;0.90;;;;;;;17.48;74.35;99248.94;1720417;80;21085;-56
2021/06/30 01:23:55;;;;;;;1.00;0.90;;;;;;;17.46;74.27;99246.34;1720689;80;21113;-54
2021/06/30 01:26:22;;;;;;;1.00;0.90;;;;;;;17.44;74.25;99250.21;1717711;80;21520;-57
2021/06/30 01:28:48;;;;;;;1.50;0.90;;;;;;;17.38;74.29;99240.20;1717416;80;21126;-54
2021/06/30 01:31:15;;;;;;;1.87;1.00;;;;;;;17.37;74.31;99243.03;1715300;80;21125;-54
2021/06/30 01:33:42;;;;;;;2.37;1.15;;;;;;;17.35;74.38;99237.72;1713770;80;21119;-54
2021/06/30 01:36:08;;;;;;;3.52;1.20;;;;;;;17.35;74.39;99235.53;1713622;80;21102;-54
2021/06/30 01:38:34;;;;;;;0.85;0.80;;;;;;;17.31;74.35;99237.63;1714387;80;21317;-54
2021/06/30 01:41:01;;;;;;;2.10;0.80;;;;;;;17.28;74.37;99238.37;1714938;80;21049;-54
2021/06/30 01:43:27;;;;;;;2.00;1.02;;;;;;;17.25;74.36;99245.45;1717629;80;21536;-54
2021/06/30 01:45:54;;;;;;;5.85;1.12;;;;;;;17.21;74.39;99243.47;1726869;80;22341;-54
2021/06/30 01:48:21;;;;;;;1.82;0.70;;;;;;;17.20;74.47;99244.95;1723050;80;21536;-54
2021/06/30 01:50:48;;;;;;;1.00;0.90;;;;;;;17.17;74.50;99247.94;1716436;80;21054;-53
2021/06/30 01:53:17;;;;;;;2.40;0.90;;;;;;;17.14;74.37;99244.97;1722148;80;21060;-54
2021/06/30 01:55:43;;;;;;;4.03;1.17;;;;;;;17.12;74.23;99244.72;1718269;80;21097;-54
2021/06/30 01:58:10;;;;;;;2.10;1.10;;;;;;;17.08;74.22;99244.13;1718418;80;21078;-53
2021/06/30 02:00:37;;;;;;;2.12;0.90;;;;;;;17.07;74.34;99251.05;1717292;80;21089;-53
2021/06/30 02:03:03;;;;;;;1.30;0.90;;;;;;;17.03;74.44;99243.13;1709871;80;21077;-54
2021/06/30 02:05:31;;;;;;;0.80;0.80;;;;;;;17.01;74.47;99254.63;1707692;81;21138;-54
2021/06/30 02:08:00;;;;;;;1.47;0.85;;;;;;;16.98;74.51;99261.70;1709718;81;21097;-53
2021/06/30 02:10:28;;;;;;;2.15;1.17;;;;;;;16.96;74.58;99266.88;1716192;81;21920;-54
2021/06/30 02:12:56;;;;;;;1.00;0.78;;;;;;;16.94;74.64;99262.05;1711521;81;20919;-54
2021/06/30 02:15:28;;;;;;;1.22;0.80;;;;;;;16.95;74.73;99265.14;1707849;81;21124;-54
2021/06/30 02:17:57;;;;;;;0.93;0.80;;;;;;;16.96;74.77;99270.95;1705732;81;20985;-54
2021/06/30 02:20:24;;;;;;;4.22;0.93;;;;;;;16.93;74.48;99267.98;1708624;81;21418;-54
2021/06/30 02:22:51;;;;;;;2.98;1.22;;;;;;;16.92;74.39;99262.20;1708775;81;22037;-53
2021/06/30 02:25:20;;;;;;;1.92;1.00;;;;;;;16.91;74.54;99271.84;1708989;81;21010;-53
2021/06/30 02:27:48;;;;;;;1.42;1.17;;;;;;;16.88;74.75;99269.36;1711094;81;20916;-54
2021/06/30 02:30:21;;;;;;;1.30;0.80;;;;;;;16.88;74.93;99275.66;1708205;81;21138;-54
2021/06/30 02:32:47;;;;;;;1.22;1.00;;;;;;;16.86;74.75;99274.92;1708172;81;21459;-54
2021/06/30 02:35:18;;;;;;;2.22;0.90;;;;;;;16.86;74.61;99280.36;1709045;81;21403;-54
2021/06/30 02:37:45;;;;;;;4.37;1.05;;;;;;;16.86;74.70;99284.44;1713621;81;22159;-54
2021/06/30 02:40:13;;;;;;;1.22;1.00;;;;;;;16.87;74.96;99283.94;1655381;84;21147;-54
2021/06/30 02:42:39;;;;;;;1.05;0.95;;;;;;;16.86;74.98;99276.28;1669871;83;21137;-54
2021/06/30 02:45:10;;;;;;;3.22;1.02;;;;;;;16.87;75.01;99281.22;1668176;83;21077;-54
2021/06/30 02:47:37;;;;;;;1.40;1.30;;;;;;;16.89;75.06;99276.53;1669797;83;21608;-54
2021/06/30 02:50:07;;;;;;;3.42;1.10;;;;;;;16.89;75.00;99279.25;1665555;83;21421;-54
2021/06/30 02:52:33;;;;;;;1.65;1.10;;;;;;;16.88;75.14;99276.16;1671044;83;21117;-54
2021/06/30 02:55:00;;;;;;;0.80;0.80;;;;;;;16.88;75.24;99274.30;1672792;83;21128;-54
2021/06/30 02:57:26;;;;;;;1.90;1.10;;;;;;;16.90;75.39;99283.70;1670670;83;21130;-53
2021/06/30 02:59:54;;;;;;;3.30;1.30;;;;;;;16.92;75.56;99285.81;1670628;83;21108;-54
2021/06/30 03:02:21;;;;;;;1.27;1.15;;;;;;;16.95;75.68;99284.18;1672674;83;21109;-53
2021/06/30 03:04:47;;;;;;;2.77;0.90;;;;;;;16.97;75.85;99280.35;1669019;83;21022;-53
2021/06/30 03:07:14;;;;;;;2.05;0.90;;;;;;;17.01;75.92;99279.63;1668611;83;21600;-54
2021/06/30 03:09:40;;;;;;;3.42;1.75;;;;;;;17.04;76.03;99282.06;1669064;83;21085;-54
2021/06/30 03:12:07;;;;;;;1.90;1.52;;;;;;;17.06;76.27;99288.25;1670030;83;21133;-54
2021/06/30 03:14:36;;;;;;;2.02;1.50;;;;;;;17.10;76.71;99286.99;1671120;83;21090;-54
2021/06/30 03:17:04;;;;;;;1.77;1.10;;;;;;;17.17;77.03;99287.38;1671828;83;21570;-54
2021/06/30 03:19:31;;;;;;;1.52;1.42;;;;;;;17.24;77.21;99289.45;1669221;83;22266;-54
2021/06/30 03:21:57;;;;;;;3.22;1.30;;;;;;;17.31;77.32;99289.81;1669205;83;21066;-54
2021/06/30 03:24:24;;;;;;;4.78;1.00;;;;;;;17.36;77.43;99288.91;1643305;83;21122;-54
2021/06/30 03:26:50;;;;;;;2.02;1.25;;;;;;;17.42;77.42;99288.92;1670070;83;21097;-54
2021/06/30 03:29:17;;;;;;;2.10;1.45;;;;;;;17.48;77.46;99289.76;1669517;83;21071;-54
2021/06/30 03:31:43;;;;;;;1.35;1.10;;;;;;;17.54;77.47;99286.02;1672781;83;21168;-54
2021/06/30 03:34:09;;;;;;;1.30;1.20;;;;;;;17.62;77.48;99284.04;1667951;83;21082;-54
2021/06/30 03:36:36;;;;;;;9.28;1.50;;;;;;;17.68;77.52;99284.91;1671027;83;21128;-54
2021/06/30 03:39:02;;;;;;;4.60;1.10;;;;;;;17.74;77.51;99289.33;1666218;83;21527;-53
2021/06/30 03:41:28;;;;;;;3.95;1.40;;;;;;;17.81;77.56;99284.71;1669229;83;21160;-53
2021/06/30 03:43:55;;;;;;;1.95;1.30;;;;;;;17.88;77.63;99291.35;1668621;83;21806;-54
2021/06/30 03:46:22;;;;;;;2.80;1.55;;;;;;;17.94;77.81;99289.00;1670720;83;21121;-54
2021/06/30 03:48:48;;;;;;;1.65;1.40;;;;;;;18.02;77.74;99290.56;1668739;83;22422;-54
2021/06/30 03:51:15;;;;;;;3.52;1.32;;;;;;;18.08;77.56;99284.58;1683632;83;21551;-54
2021/06/30 03:53:41;;;;;;;1.87;1.45;;;;;;;18.13;77.48;99279.58;1671281;83;21572;-54
2021/06/30 03:56:08;;;;;;;2.25;1.55;;;;;;;18.20;77.30;99288.11;1684368;83;22310;-54
2021/06/30 03:58:34;;;;;;;1.52;1.42;;;;;;;18.27;77.17;99281.62;1667346;83;21094;-54
2021/06/30 04:01:00;;;;;;;2.83;1.80;;;;;;;18.34;76.93;99285.53;1672124;83;21137;-54
2021/06/30 04:03:27;;;;;;;2.17;2.05;;;;;;;18.42;76.91;99288.45;1670841;83;21076;-54
2021/06/30 04:05:53;;;;;;;4.03;1.90;;;;;;;18.52;76.69;99283.92;1687099;82;21089;-53
2021/06/30 04:08:20;;;;;;;3.10;1.95;;;;;;;18.61;76.48;99281.78;1661708;84;22870;-54
2021/06/30 04:10:46;;;;;;;2.90;1.95;;;;;;;18.69;76.12;99284.69;1682869;82;21507;-54
2021/06/30 04:13:15;;;;;;;1.82;1.20;;;;;;;18.76;75.92;99291.31;1677966;83;21093;-53
2021/06/30 04:17:17;;;;;;;1.40;1.25;;;;;;;18.93;75.53;99291.66;1801008;78;28183;-51
2021/06/30 04:19:44;;;;;;;5.55;1.47;;;;;;;18.95;75.42;99292.39;1771313;78;21073;-52
2021/06/30 04:22:11;;;;;;;1.52;1.30;;;;;;;19.03;75.47;99285.75;1769820;78;21136;-53
2021/06/30 04:24:37;;;;;;;1.40;1.30;;;;;;;19.12;75.46;99289.01;1767069;78;21341;-52
2021/06/30 04:27:04;;;;;;;1.45;1.35;;;;;;;19.21;75.40;99286.81;1763794;78;21062;-52
2021/06/30 04:29:31;;;;;;;1.95;1.75;;;;;;;19.31;75.22;99292.30;1773096;78;20951;-54
2021/06/30 04:31:57;;;;;;;3.22;1.20;;;;;;;19.40;74.77;99292.79;1772321;78;20947;-54
2021/06/30 04:34:23;;;;;;;3.45;1.17;;;;;;;19.48;74.41;99300.67;1771690;78;20911;-54
2021/06/30 04:36:50;;;;;;;1.60;1.50;;;;;;;19.55;74.24;99301.85;1774156;78;21756;-54
2021/06/30 04:39:19;;;;;;;1.80;1.00;;;;;;;19.63;73.83;99299.78;1772952;78;21711;-54
2021/06/30 04:41:46;;;;;;;1.00;0.90;;;;;;;19.71;73.44;99304.02;1771322;78;20872;-54
2021/06/30 04:44:13;;;;;;;1.90;1.10;;;;;;;19.78;72.95;99305.17;1759617;80;20974;-54
2021/06/30 04:46:39;;;;;;;0.90;0.90;;;;;;;19.86;72.59;99305.82;1763819;79;21070;-54
2021/06/30 04:49:06;;;;;;;1.90;0.90;;;;;;;19.93;72.26;99296.91;1764037;80;20925;-54
2021/06/30 04:51:32;;;;;;;1.10;1.00;;;;;;;20.01;72.01;99294.31;1761564;79;21072;-54
2021/06/30 04:53:59;;;;;;;4.85;1.10;;;;;;;20.09;71.77;99294.09;1696923;82;21070;-54
2021/06/30 04:56:29;;;;;;;1.20;1.10;;;;;;;20.17;71.36;99288.75;1695103;83;21525;-54
2021/06/30 04:58:56;;;;;;;1.25;1.15;;;;;;;20.24;70.79;99292.16;1724306;80;21441;-54
2021/06/30 05:01:23;;;;;;;3.52;1.42;;;;;;;20.31;70.22;99286.45;1690260;83;21564;-54
2021/06/30 05:03:49;;;;;;;1.05;1.05;;;;;;;20.38;70.16;99276.69;1696314;83;21579;-54
2021/06/30 05:06:16;;;;;;;1.62;0.80;;;;;;;20.46;69.75;99285.51;1723392;81;21048;-54
2021/06/30 05:08:42;;;;;;;1.47;0.90;;;;;;;20.54;68.37;99277.93;1721083;80;21097;-54
2021/06/30 05:11:09;;;;;;;2.40;0.90;;;;;;;20.62;67.24;99283.52;1692757;83;21109;-55
2021/06/30 05:13:36;;;;;;;1.10;0.80;;;;;;;20.71;66.56;99281.26;1692032;83;21074;-54
2021/06/30 05:16:04;;;;;;;0.80;0.80;;;;;;;20.80;65.87;99282.23;1700863;82;21046;-54
2021/06/30 05:18:30;;;;;;;0.90;0.80;;;;;;;20.89;65.94;99285.44;1698510;82;20927;-54
2021/06/30 05:20:57;;;;;;;1.45;1.00;;;;;;;20.97;65.84;99285.55;1694978;82;21058;-55
2021/06/30 05:23:23;;;;;;;4.80;0.80;;;;;;;21.07;65.76;99294.07;1686553;82;21133;-54
2021/06/30 05:25:50;;;;;;;2.55;0.78;;;;;;;21.15;65.60;99287.84;1699411;82;21157;-54
2021/06/30 05:28:16;;;;;;;2.33;0.65;;;;;;;21.24;65.01;99291.06;1690069;82;21553;-54
2021/06/30 05:30:42;;;;;;;1.32;0.70;;;;;;;21.33;64.99;99286.55;1688866;82;21097;-55
2021/06/30 05:33:10;;;;;;;0.85;0.80;;;;;;;21.41;64.11;99288.88;1696461;82;20963;-54
2021/06/30 05:35:36;;;;;;;0.95;0.80;;;;;;;21.49;63.63;99290.33;1690931;82;21130;-55
2021/06/30 05:38:02;;;;;;;1.42;0.88;;;;;;;21.57;63.37;99289.55;1680809;83;21066;-55
2021/06/30 05:40:30;;;;;;;0.80;0.80;;;;;;;21.66;63.71;99289.12;1666263;82;21069;-54
2021/06/30 05:42:57;;;;;;;2.05;0.80;;;;;;;21.73;64.10;99284.24;1685669;82;21200;-54
2021/06/30 05:45:24;;;;;;;2.65;0.80;;;;;;;21.80;63.74;99294.92;1690655;82;21085;-55
2021/06/30 05:47:51;;;;;;;0.88;0.70;;;;;;;21.88;63.29;99295.00;1690473;82;21173;-54
2021/06/30 05:50:19;;;;;;;1.45;0.65;;;;;;;21.93;62.45;99290.44;1686564;82;21125;-54
2021/06/30 05:52:46;;;;;;;0.80;0.65;;;;;;;21.99;61.27;99287.09;1693474;82;20908;-54
2021/06/30 05:55:12;;;;;;;1.17;0.60;;;;;;;22.05;60.88;99285.59;1686660;82;21145;-54
2021/06/30 05:57:38;;;;;;;0.60;0.60;;;;;;;22.09;59.75;99274.67;1690547;82;21090;-54
2021/06/30 06:00:14;;;;;;;1.22;0.60;;;;;;;22.13;59.29;99285.66;1687214;82;21696;-54
2021/06/30 06:02:40;;;;;;;0.70;0.60;;;;;;;22.17;59.11;99280.22;1697832;82;21390;-55
2021/06/30 06:05:08;;;;;;;0.95;0.85;;;;;;;22.24;58.89;99286.79;1686319;82;21577;-54
2021/06/30 06:07:34;;;;;;;0.70;0.60;;;;;;;22.29;58.65;99283.05;1692284;82;20936;-54
2021/06/30 06:10:01;;;;;;;0.95;0.60;;;;;;;22.34;57.88;99284.81;1686841;82;21067;-55
2021/06/30 06:12:27;;;;;;;1.55;0.57;;;;;;;22.41;57.84;99271.31;1728170;80;21140;-54
2021/06/30 06:14:54;;;;;;;0.70;0.60;;;;;;;22.49;57.82;99282.34;1726016;80;21512;-54
2021/06/30 06:17:21;;;;;;;2.30;0.50;;;;;;;22.58;57.38;99280.87;1743589;80;21368;-55
2021/06/30 06:19:47;;;;;;;1.22;0.50;;;;;;;22.65;56.78;99277.82;1750279;80;21690;-55
2021/06/30 06:22:13;;;;;;;1.95;0.50;;;;;;;22.75;56.84;99280.48;1746881;80;21132;-55
2021/06/30 06:24:40;;;;;;;2.35;0.50;;;;;;;22.87;56.53;99286.06;1747445;80;21137;-55
2021/06/30 06:27:07;;;;;;;1.07;0.80;;;;;;;22.98;56.39;99280.77;1750340;80;21172;-54
2021/06/30 06:29:34;;;;;;;1.45;0.50;;;;;;;23.07;54.91;99275.67;1748150;81;21050;-55
2021/06/30 06:32:01;;;;;;;13.15;0.60;;;;;;;23.16;55.20;99276.06;1750493;80;21081;-54
2021/06/30 06:34:28;;;;;;;2.20;0.50;;;;;;;23.25;54.00;99276.95;1750203;80;21270;-54
2021/06/30 06:36:54;;;;;;;2.45;0.70;;;;;;;23.32;53.26;99273.38;1753480;79;21117;-54
2021/06/30 06:39:21;;;;;;;1.15;0.47;;;;;;;23.42;53.70;99280.61;1748891;80;21546;-54
2021/06/30 06:41:48;;;;;;;0.40;0.40;;;;;;;23.49;53.48;99277.06;1746417;80;21018;-55
2021/06/30 06:44:15;;;;;;;1.70;0.40;;;;;;;23.56;53.45;99282.77;1748831;80;21627;-54
2021/06/30 06:46:42;;;;;;;2.08;0.40;;;;;;;23.61;52.81;99275.73;1747063;80;21540;-54
2021/06/30 06:49:08;;;;;;;1.98;0.50;;;;;;;23.68;52.56;99274.53;1749376;80;21117;-54
2021/06/30 06:51:38;;;;;;;0.30;0.30;;;;;;;23.75;51.55;99265.95;1748175;80;21109;-54
2021/06/30 06:54:05;;;;;;;0.40;0.40;;;;;;;23.84;51.00;99268.20;1752071;80;20954;-54
2021/06/30 06:56:32;;;;;;;0.50;0.40;;;;;;;23.89;49.94;99263.94;1749657;80;21257;-55
2021/06/30 06:58:58;;;;;;;1.90;0.50;;;;;;;23.95;50.20;99264.61;1749705;80;22067;-54
2021/06/30 07:01:26;;;;;;;0.40;0.40;;;;;;;24.02;50.18;99267.02;1749257;80;21623;-55
2021/06/30 07:03:53;;;;;;;0.85;0.40;;;;;;;24.08;49.87;99269.08;1749535;79;21026;-54
2021/06/30 07:06:19;;;;;;;9.95;0.40;;;;;;;24.13;49.39;99272.19;1751687;80;21073;-55
2021/06/30 07:08:46;;;;;;;1.07;0.50;;;;;;;24.19;49.43;99280.25;1746805;80;21092;-55
2021/06/30 07:11:13;;;;;;;0.55;0.50;;;;;;;24.23;49.28;99272.05;1743500;80;21104;-56
2021/06/30 07:13:40;;;;;;;1.15;0.50;;;;;;;24.28;49.54;99270.14;1680965;82;22181;-55
2021/06/30 07:16:09;;;;;;;2.40;0.50;;;;;;;24.32;50.01;99266.03;1744202;80;21448;-56
2021/06/30 07:18:35;;;;;;;0.50;0.40;;;;;;;24.37;49.63;99269.97;1748727;80;21035;-55
2021/06/30 07:21:03;;;;;;;3.08;0.50;;;;;;;24.40;49.50;99268.26;1755371;81;20912;-54
2021/06/30 07:23:29;;;;;;;0.50;0.40;;;;;;;24.46;49.33;99270.81;1746027;80;20986;-56
2021/06/30 07:25:56;;;;;;;1.62;0.40;;;;;;;24.52;49.08;99268.73;1753317;80;21090;-54
2021/06/30 07:28:23;;;;;;;0.50;0.50;;;;;;;24.61;49.76;99266.83;1752942;79;20927;-55
2021/06/30 07:30:49;;;;;;;1.87;0.40;;;;;;;24.69;50.87;99263.55;1750112;79;21515;-56
2021/06/30 07:33:16;;;;;;;5.05;0.70;;;;;;;24.79;50.52;99256.47;1750995;79;21682;-55
2021/06/30 07:35:42;;;;;;;1.55;0.70;;;;;;;24.91;51.17;99261.98;1743777;81;21154;-55
2021/06/30 07:38:09;;;;;;;1.85;0.50;;;;;;;25.01;51.03;99255.73;1748283;80;21124;-55
2021/06/30 07:40:35;;;;;;;2.83;0.47;;;;;;;25.12;50.44;99258.62;1752339;79;21046;-55
2021/06/30 07:43:03;;;;;;;1.95;0.42;;;;;;;25.18;50.63;99256.00;1756503;79;21062;-55
2021/06/30 07:45:30;;;;;;;0.82;0.50;;;;;;;25.28;51.14;99257.17;1752077;80;20982;-56
2021/06/30 07:47:56;;;;;;;0.50;0.47;;;;;;;25.37;50.89;99254.71;1751335;79;21021;-53
2021/06/30 07:50:22;;;;;;;0.45;0.45;;;;;;;25.47;50.76;99257.25;1746606;80;21101;-55
2021/06/30 07:52:48;;;;;;;2.15;0.45;;;;;;;25.57;50.70;99252.38;1747074;80;21175;-56
2021/06/30 07:55:17;;;;;;;2.17;0.40;;;;;;;25.68;49.77;99249.77;1747882;80;21069;-55
2021/06/30 07:57:43;;;;;;;4.97;0.60;;;;;;;25.77;49.79;99259.70;1746070;80;21176;-55
2021/06/30 08:00:10;;;;;;;7.97;0.70;;;;;;;25.87;49.49;99255.63;1752488;79;21062;-55
2021/06/30 08:02:41;;;;;;;1.02;0.47;;;;;;;25.95;49.42;99250.05;1749964;81;21097;-56
2021/06/30 08:05:09;;;;;;;2.05;0.40;;;;;;;26.05;49.66;99249.81;1753142;81;21058;-56
2021/06/30 08:07:36;;;;;;;1.42;0.40;;;;;;;26.15;49.57;99250.42;1751644;79;20943;-56
2021/06/30 08:10:07;;;;;;;1.10;0.60;;;;;;;26.25;48.25;99250.17;1750647;80;20931;-56
2021/06/30 08:12:33;;;;;;;0.72;0.50;;;;;;;26.33;47.20;99250.12;1750818;81;21156;-57
2021/06/30 08:15:00;;;;;;;0.50;0.50;;;;;;;26.39;47.58;99250.75;1748814;81;21340;-55
2021/06/30 08:17:27;;;;;;;1.05;0.50;;;;;;;26.48;47.04;99255.67;1746835;79;21034;-53
2021/06/30 08:19:53;;;;;;;2.15;0.45;;;;;;;26.54;47.22;99255.77;1742465;79;21066;-58
2021/06/30 08:22:19;;;;;;;0.50;0.50;;;;;;;26.60;46.84;99260.56;1743946;80;21446;-55
2021/06/30 08:24:45;;;;;;;1.15;0.50;;;;;;;26.65;46.41;99264.13;1746314;80;21086;-54
2021/06/30 08:27:13;;;;;;;0.40;0.40;;;;;;;26.73;46.28;99266.80;1744790;79;21545;-55
2021/06/30 08:29:41;;;;;;;0.50;0.45;;;;;;;26.79;46.26;99264.68;1746882;80;21097;-55
2021/06/30 08:32:07;;;;;;;1.15;0.50;;;;;;;26.86;45.49;99268.39;1741528;80;22280;-55
2021/06/30 08:34:34;;;;;;;0.50;0.40;;;;;;;26.89;44.70;99274.03;1746523;80;21130;-55
2021/06/30 08:37:04;;;;;;;0.40;0.40;;;;;;;26.90;43.59;99273.86;1744979;80;21434;-55
2021/06/30 08:39:29;;;;;;;1.40;0.40;;;;;;;26.91;44.16;99268.70;1741481;79;21187;-56
2021/06/30 08:41:55;;;;;;;0.33;0.33;;;;;;;26.94;44.71;99257.28;1748841;80;21180;-58
2021/06/30 08:44:22;;;;;;;1.90;0.40;;;;;;;27.01;44.70;99264.28;1742908;80;21042;-56
2021/06/30 08:46:48;;;;;;;0.40;0.40;;;;;;;27.11;44.57;99257.95;1747821;80;21019;-57
2021/06/30 08:49:17;;;;;;;0.30;0.30;;;;;;;27.24;44.83;99261.39;1751491;80;21491;-55
2021/06/30 08:51:43;;;;;;;0.30;0.30;;;;;;;27.34;44.32;99256.44;1751402;80;21358;-54
2021/06/30 08:54:11;;;;;;;0.47;0.40;;;;;;;27.40;42.99;99251.50;1747636;80;21480;-54
2021/06/30 08:56:40;;;;;;;1.22;0.30;;;;;;;27.48;42.78;99252.77;1746736;81;21085;-55
2021/06/30 08:59:06;;;;;;;1.12;0.60;;;;;;;27.57;43.46;99258.55;1743990;81;21082;-55
2021/06/30 09:01:33;;;;;;;0.60;0.40;;;;;;;27.68;43.14;99258.58;1745463;80;21097;-55
2021/06/30 09:04:01;;;;;;;0.85;0.40;;;;;;;27.73;42.10;99259.70;1724906;81;21094;-55
2021/06/30 09:06:28;;;;;;;4.25;0.50;;;;;;;27.71;41.83;99257.67;1746273;81;21398;-54
2021/06/30 09:09:00;;;;;;;1.52;0.50;;;;;;;27.69;42.49;99258.39;1743917;81;21204;-56
2021/06/30 09:11:27;;;;;;;1.10;0.50;;;;;;;27.74;43.52;99261.41;1742988;81;21089;-56
2021/06/30 09:14:20;;;;;;;2.05;0.50;;;;;;;27.68;42.94;99260.82;1744202;80;21093;-56
2021/06/30 09:17:06;;;;;;;2.45;0.60;;;;;;;27.69;43.09;99254.77;1747731;81;21825;-56
2021/06/30 09:19:55;;;;;;;1.87;0.50;;;;;;;27.74;43.99;99243.97;1745757;81;21524;-56
2021/06/30 09:22:26;;;;;;;0.70;0.40;;;;;;;27.82;43.84;99245.22;1727785;80;21110;-57
2021/06/30 09:24:55;;;;;;;1.20;0.60;;;;;;;27.90;44.20;99240.12;1743458;80;21292;-58
2021/06/30 09:27:43;;;;;;;2.92;0.60;;;;;;;27.98;44.70;99244.13;1749139;80;20892;-55
2021/06/30 09:30:12;;;;;;;0.50;0.42;;;;;;;28.08;44.71;99244.63;1744144;79;22222;-57
2021/06/30 09:32:57;;;;;;;1.05;0.47;;;;;;;28.16;42.45;99244.00;1751105;79;21070;-57
2021/06/30 09:35:34;;;;;;;1.95;0.50;;;;;;;28.16;42.24;99248.67;1745321;79;21108;-55
2021/06/30 09:38:32;;;;;;;3.22;0.60;;;;;;;28.13;42.41;99239.37;1743742;80;21079;-55
2021/06/30 09:40:58;;;;;;;1.72;0.42;;;;;;;28.10;42.60;99239.23;1746619;81;21521;-55
2021/06/30 09:43:32;;;;;;;2.50;0.53;;;;;;;28.05;42.89;99232.59;1749873;81;21947;-55
2021/06/30 09:46:01;;;;;;;0.50;0.40;;;;;;;28.01;42.87;99225.73;1746273;81;21039;-55
2021/06/30 09:48:30;;;;;;;4.22;0.60;;;;;;;27.97;43.42;99230.83;1745805;81;21122;-55
2021/06/30 09:50:58;;;;;;;0.50;0.50;;;;;;;28.00;43.05;99226.27;1744729;81;22513;-58
2021/06/30 09:53:41;;;;;;;0.55;0.50;;;;;;;28.05;43.09;99224.30;1740555;81;21066;-55
2021/06/30 09:56:15;;;;;;;0.67;0.60;;;;;;;28.10;42.93;99219.88;1746677;81;21050;-57
2021/06/30 09:58:41;;;;;;;1.10;0.60;;;;;;;28.17;43.63;99220.81;1735461;81;21277;-56
2021/06/30 10:01:18;;;;;;;0.47;0.47;;;;;;;28.27;44.16;99221.86;1742486;80;21058;-56
2021/06/30 10:03:46;;;;;;;0.93;0.60;;;;;;;28.36;42.05;99223.43;1744326;79;21070;-54
2021/06/30 10:06:28;;;;;;;0.85;0.50;;;;;;;28.38;42.88;99231.54;1747012;80;21106;-56
2021/06/30 10:08:55;;;;;;;1.65;0.45;;;;;;;28.41;42.35;99233.92;1742694;81;22704;-55
2021/06/30 10:11:24;;;;;;;0.68;0.40;;;;;;;28.34;42.42;99226.06;1746196;81;21058;-56
2021/06/30 10:13:51;;;;;;;0.80;0.40;;;;;;;28.30;42.42;99227.53;1747325;80;20895;-56
2021/06/30 10:16:19;;;;;;;0.40;0.40;;;;;;;28.27;42.05;99223.25;1749817;81;21003;-54
2021/06/30 10:18:45;;;;;;;0.50;0.50;;;;;;;28.29;42.26;99219.76;1751582;81;21852;-56
2021/06/30 10:21:12;;;;;;;1.50;0.50;;;;;;;28.32;42.73;99223.52;1752179;79;21717;-56
2021/06/30 10:23:39;;;;;;;0.40;0.40;;;;;;;28.45;42.87;99232.44;1755386;81;21002;-59
2021/06/30 10:26:05;;;;;;;0.95;0.50;;;;;;;28.47;42.73;99229.81;1749353;79;21069;-57
2021/06/30 10:28:31;;;;;;;0.53;0.50;;;;;;;28.54;42.76;99221.55;1750476;79;21574;-56
2021/06/30 10:30:58;;;;;;;0.70;0.50;;;;;;;28.59;43.11;99228.18;1749718;80;21173;-55
2021/06/30 10:33:33;;;;;;;0.90;0.45;;;;;;;28.66;43.27;99226.01;1750540;79;21110;-55
2021/06/30 10:36:00;;;;;;;2.05;0.40;;;;;;;28.71;43.61;99225.72;1758050;81;20986;-54
2021/06/30 10:38:55;;;;;;;0.40;0.40;;;;;;;28.76;42.16;99223.70;1749095;80;20914;-54
2021/06/30 10:41:44;;;;;;;2.45;0.55;;;;;;;28.81;42.40;99219.85;1755033;81;20932;-55
2021/06/30 10:44:16;;;;;;;0.60;0.50;;;;;;;28.85;42.78;99229.45;1708776;82;21011;-57
2021/06/30 10:46:43;;;;;;;0.55;0.50;;;;;;;28.83;42.49;99223.28;1691957;83;21934;-55
2021/06/30 10:49:22;;;;;;;0.80;0.42;;;;;;;28.80;42.74;99227.30;1711733;81;21496;-56
2021/06/30 10:51:52;;;;;;;0.50;0.45;;;;;;;28.73;42.93;99222.22;1748540;79;21454;-54
2021/06/30 10:54:49;;;;;;;0.55;0.40;;;;;;;28.60;43.28;99225.74;1751573;81;21006;-55
2021/06/30 10:57:28;;;;;;;1.65;0.40;;;;;;;28.49;43.38;99224.94;1752691;79;21090;-57
2021/06/30 11:00:12;;;;;;;0.50;0.50;;;;;;;28.36;43.04;99211.50;1752318;80;21182;-56
2021/06/30 11:02:39;;;;;;;;;;;;;;;28.31;42.43;99208.49;1755254;81;21177;-56
2021/06/30 11:05:20;;;;;;;0.50;0.50;;;;;;;28.27;43.00;99202.48;1744842;80;20243;-57
2021/06/30 11:07:46;;;;;;;0.85;0.50;;;;;;;28.27;42.34;99198.34;1751348;81;21489;-57
2021/06/30 11:10:24;;;;;;;2.72;0.53;;;;;;;28.31;42.25;99192.74;1749473;81;21710;-56
2021/06/30 11:12:55;;;;;;;0.53;0.50;;;;;;;28.37;42.89;99196.61;1749310;80;21129;-57
2021/06/30 11:15:39;;;;;;;0.50;0.50;;;;;;;28.42;42.25;99194.08;1752890;81;21319;-56
2021/06/30 11:18:15;;;;;;;;;;;;;;;28.41;41.87;99186.30;1749433;80;21063;-56
2021/06/30 11:20:49;;;;;;;1.55;0.50;;;;;;;28.45;42.19;99179.84;1749333;81;20236;-56
2021/06/30 11:23:24;;;;;;;5.35;0.55;;;;;;;28.45;41.38;99174.31;1751810;81;21476;-55
2021/06/30 11:25:51;;;;;;;0.60;0.60;;;;;;;28.47;40.47;99170.29;1743396;81;21126;-57
2021/06/30 11:28:34;;;;;;;0.45;0.45;;;;;;;28.50;40.69;99174.02;1747526;80;20967;-58
2021/06/30 11:31:27;;;;;;;2.10;0.50;;;;;;;28.53;41.34;99172.23;1746707;80;21591;-57
2021/06/30 11:34:22;;;;;;;0.50;0.50;;;;;;;28.58;41.92;99166.94;1730481;81;21078;-57
2021/06/30 11:36:48;;;;;;;0.55;0.50;;;;;;;28.64;41.69;99155.59;1746598;79;21129;-56
2021/06/30 11:39:18;;;;;;;0.70;0.50;;;;;;;28.73;41.84;99161.83;1746295;81;21061;-57
2021/06/30 11:41:48;;;;;;;0.45;0.45;;;;;;;28.79;41.87;99156.34;1744995;80;21043;-56